Hundvaag 1 weather for Sep 2005
Month no. 219
Obs.
Da.
Temp. Dew Point Precip. Wind
Speed
Wind gusts Cloud cover Press. Humidity Wind dir. Sunny OPT
01.09.2005 16,7   0,0 5,4   4 1012,5 60,0 247,5 1 77,5 %
02.09.2005 10,0   2,0 2,2   3 1013,2 82,0 247,5   72,5 %
03.09.2005 8,9   0,4 0,9   3 1031,2 78,0 315,0 1 70,0 %
04.09.2005 11,1   0,0 2,2   4 1024,4 68,0 202,5 1 75,0 %
05.09.2005 11,7   0,0 1,3   4 1015,9 63,0 202,5 1 75,0 %
06.09.2005 15,0   0,0 2,7   4 1006,1 59,0 202,5 1 80,0 %
07.09.2005 13,9   0,0 2,7   4 1003,0 86,0 180,0 1 77,5 %
08.09.2005 10,6   6,5 2,7   2 1000,7 85,0 202,5   65,0 %
09.09.2005 8,9   4,0 2,2   2 1015,2 65,0 315,0   65,0 %
10.09.2005 8,9   0,0 0,9   4 1019,6 71,0 22,5 1 72,5 %
11.09.2005 10,0   0,0 1,3   4 1015,9 73,0 90,0 1 75,0 %
12.09.2005 9,4   1,1 2,2   3 1015,6 76,0 337,5   70,0 %
13.09.2005 8,3   0,0 2,2   4 1005,4 86,0 202,5 1 72,5 %
14.09.2005 10,6   48,1 4,5   0 1000,0 86,0 315,0   37,5 %
15.09.2005 7,8   9,5 4,0   0 1007,8 68,0 0,0   52,5 %
16.09.2005 6,7   0,7 3,6   4 1013,2 67,0 0,0 1 70,0 %
17.09.2005 6,1   0,1 1,8   4 1015,2 78,0 315,0 1 70,0 %
18.09.2005 10,0   31,9 2,2   0 1013,9 92,0 315,0   40,0 %
19.09.2005 12,2   2,0 2,7   3 1019,3 88,0 202,5   72,5 %
20.09.2005 11,7   6,7 3,1   2 1016,6 88,0 202,5   65,0 %
21.09.2005 8,9   0,2 2,2   3 1022,0 78,0 202,5 1 70,0 %
22.09.2005 13,3   0,0 4,5   4 1019,6 78,0 180,0 1 75,0 %
23.09.2005 13,3   0,0 5,4   4 1007,5 67,0 180,0 1 75,0 %
24.09.2005 7,2   9,5 1,3   1 1008,1 71,0 315,0   55,0 %
25.09.2005 6,7   0,0 2,7   4 1009,5 67,0 180,0 1 70,0 %
26.09.2005 12,8   0,5 2,2   4 1009,5 78,0 180,0 1 77,5 %
27.09.2005 10,6   15,8 4,5   0 1003,7 83,0 202,5   50,0 %
28.09.2005 10,0   1,2 2,2   3 1003,7 78,0 202,5   72,5 %
29.09.2005 7,2   25,0 3,6   0 1000,3 84,0 180,0   40,0 %
30.09.2005 6,1   2,1 3,6   3 1002,7 83,0     67,5 %
                       
Avrg/Sum 10,1   167,3 2,8   2,8 1011,7 76,2 204,8 16 66,9 %